Aérodrome :
LOGIN :

S'inscrire | Disclaimer

   EN    FR    IT 

 










Légende :    VFR   VFR Marginal   IFR   IFR Intensif   IFR Très Intensif
Visi : 
Plafond : 
>= 8 km
>= 3000ft
5 à 8 km
1000 à 3000 ft
1500m à 5 km
500 à 1000 ft
800 à 1500m
200 à 500 ft
< 800m
< 200 ft
Symboles :   Orages  Brouillard  Fortes neiges  Fortes précipitations  Vent > 20 kt
SIGMETs :   Divers  Orages  Givrage  Turbulence  Onde Orograph.  Cendres Volcan.






- Altitude de l'aérodrome : 184 ft
- Code IATA : BRU


EBBR - Bruxelles

DERNIER METAR :
  • 250450Z 21003KT 4000 BR SCT003 BKN006 00/M01 Q1021 NOSIG

METARs EXPIRÉS :
  • 250420Z 23003KT 200V260 3800 BR SCT004 BKN007 00/M01 Q1021 NOSIG
  • 250350Z 25003KT 220V300 4500 BR SCT004 BKN008 00/M01 Q1021 NOSIG
  • 250320Z 19003KT 4500 BR SCT007 BKN009 00/M01 Q1022 NOSIG
  • 250250Z VRB02KT 4500 BR SCT007 BKN009 00/M01 Q1022 NOSIG
  • 250220Z VRB01KT 5000 BR SCT007 BKN009 M00/M02 Q1022 NOSIG

TAF TAF EBBR
Valide du 25 à 00h jusqu'au 26 à 06h UTC


242300Z 2500/2606 20003KT 4500 BR BKN006
TEMPO 2501/2509 2000 BCFG BKN003
PROB30
TEMPO 2502/2509 0500 FZFG BKN001
BECMG 2518/2520 1400 BCFG
PROB30
TEMPO 2520/2601 0800 FG VV002
TEMPO 2601/2606 3500 BR SCT005 BKN040



MET'MAP, la Météo Aéronautique d'un coup d'oeil ! - Copyright ORBIFLY Décembre 2007 - Disclaimer

ORBIFLY MET'MAP TEAM :

Programmation & Développement : Alexandra Zaïnal
Sur une idée originale de : Baudouin d'Aumeries
Assistance à la programmation : Marc-Olivier Méhu
Soutien technique & logistique : Manuel Goepfert

Contact : metmap@orbifly.com




SOURCES & CREDITS :

   NOAA